createdAt,value
2018-05-29T00:00:03.309Z,11.17
2018-05-29T00:02:30.778Z,15.10
2018-05-29T00:04:58.213Z,9.60
2018-05-29T00:07:25.671Z,12.90
2018-05-29T00:09:53.113Z,14.20
2018-05-29T00:12:20.609Z,11.40
2018-05-29T00:14:48.078Z,16.20
2018-05-29T00:17:15.550Z,15.97
2018-05-29T00:19:43.032Z,12.40
2018-05-29T00:22:10.502Z,11.13
2018-05-29T00:24:38.302Z,13.90
2018-05-29T00:27:05.744Z,16.47
2018-05-29T00:29:33.213Z,9.53
2018-05-29T00:32:00.742Z,15.03
2018-05-29T00:34:28.244Z,20.50
2018-05-29T00:36:55.789Z,13.97
2018-05-29T00:39:23.299Z,15.57
2018-05-29T00:41:50.774Z,9.53
2018-05-29T00:44:18.213Z,20.40
2018-05-29T00:46:45.668Z,19.43
2018-05-29T00:49:13.119Z,18.53
2018-05-29T00:51:40.661Z,14.63
2018-05-29T00:54:08.155Z,10.97
2018-05-29T00:56:35.599Z,10.23
2018-05-29T00:59:03.055Z,10.30
2018-05-29T01:01:30.932Z,15.10
2018-05-29T01:03:58.505Z,14.23
2018-05-29T01:06:26.069Z,12.67
2018-05-29T01:08:53.563Z,9.90
2018-05-29T01:11:21.004Z,19.67
2018-05-29T01:13:48.446Z,11.87
2018-05-29T01:16:15.921Z,9.40
2018-05-29T01:18:43.400Z,13.60
2018-05-29T01:21:10.937Z,14.07
2018-05-29T01:23:38.379Z,8.67
2018-05-29T01:26:05.848Z,20.17
2018-05-29T01:28:33.311Z,12.50
2018-05-29T01:31:00.843Z,8.43
2018-05-29T01:33:28.290Z,13.87
2018-05-29T01:35:55.812Z,14.90
2018-05-29T01:38:23.314Z,10.53
2018-05-29T01:40:50.777Z,12.47
2018-05-29T01:43:18.222Z,12.60
2018-05-29T01:45:45.730Z,15.87
2018-05-29T01:48:13.189Z,19.40
2018-05-29T01:50:40.653Z,15.10
2018-05-29T01:53:08.112Z,10.33
2018-05-29T01:55:35.546Z,9.13
2018-05-29T01:58:02.986Z,11.20
2018-05-29T02:00:30.467Z,15.13
2018-05-29T02:02:57.969Z,14.33
2018-05-29T02:05:25.428Z,11.80
2018-05-29T02:07:52.873Z,17.30
2018-05-29T02:10:20.309Z,9.07
2018-05-29T02:12:47.885Z,18.20
2018-05-29T02:15:15.449Z,7.70
2018-05-29T02:17:42.962Z,12.57
2018-05-29T02:20:10.420Z,14.57
2018-05-29T02:22:37.864Z,14.87
2018-05-29T02:25:05.325Z,7.53
2018-05-29T02:27:32.794Z,9.97
2018-05-29T02:30:00.249Z,12.83
2018-05-29T02:32:27.762Z,12.03
2018-05-29T02:34:55.220Z,14.10
2018-05-29T02:37:22.668Z,15.43
2018-05-29T02:39:50.124Z,11.10
2018-05-29T02:42:17.705Z,11.13
2018-05-29T02:44:45.248Z,14.00
2018-05-29T02:47:12.688Z,9.47
2018-05-29T02:49:40.142Z,10.00
2018-05-29T02:52:07.578Z,9.27
2018-05-29T02:54:35.049Z,12.37
2018-05-29T02:57:02.518Z,11.30
2018-05-29T02:59:29.987Z,15.87
2018-05-29T03:01:57.433Z,14.50
2018-05-29T03:04:24.899Z,15.87
2018-05-29T03:06:52.349Z,12.17
2018-05-29T03:09:19.802Z,10.23
2018-05-29T03:11:47.269Z,10.23
2018-05-29T03:14:14.744Z,12.70
2018-05-29T03:16:42.248Z,7.87
2018-05-29T03:19:09.696Z,16.73
2018-05-29T03:21:37.172Z,9.40
2018-05-29T03:24:04.620Z,10.10
2018-05-29T03:26:32.181Z,13.57
2018-05-29T03:28:59.627Z,9.93
2018-05-29T03:31:27.141Z,13.63
2018-05-29T03:33:54.681Z,9.43
2018-05-29T03:36:22.212Z,13.73
2018-05-29T03:38:49.670Z,12.70
2018-05-29T03:41:17.119Z,16.67
2018-05-29T03:43:44.590Z,13.00
2018-05-29T03:46:12.115Z,7.63
2018-05-29T03:48:39.583Z,18.03
2018-05-29T03:51:07.022Z,11.57
2018-05-29T03:53:34.534Z,9.13
2018-05-29T03:56:01.975Z,12.53
2018-05-29T03:58:29.441Z,11.10
2018-05-29T04:00:56.929Z,12.67
2018-05-29T04:03:24.370Z,12.03
2018-05-29T04:05:51.861Z,9.93
2018-05-29T04:08:19.371Z,20.93
2018-05-29T04:10:46.842Z,19.20
2018-05-29T04:13:14.309Z,27.00
2018-05-29T04:15:41.784Z,29.77
2018-05-29T04:18:09.290Z,29.37
2018-05-29T04:20:36.731Z,28.90
2018-05-29T04:23:04.174Z,16.50
2018-05-29T04:25:31.620Z,25.70
2018-05-29T04:27:59.099Z,20.90
2018-05-29T04:30:26.591Z,23.97
2018-05-29T04:32:54.138Z,19.90
2018-05-29T04:35:21.605Z,53.63
2018-05-29T04:37:49.104Z,24.07
2018-05-29T04:40:16.620Z,27.67
2018-05-29T04:42:44.078Z,55.63
2018-05-29T04:45:11.634Z,69.97
2018-05-29T04:47:39.082Z,65.73
2018-05-29T04:50:06.643Z,58.70
2018-05-29T04:52:34.116Z,78.60
2018-05-29T04:55:01.569Z,108.57
2018-05-29T04:57:29.115Z,18.27
2018-05-29T04:59:56.599Z,45.17
2018-05-29T05:02:24.045Z,33.43
2018-05-29T05:04:51.490Z,73.87
2018-05-29T05:07:18.938Z,58.73
2018-05-29T05:09:46.395Z,37.30
2018-05-29T05:12:13.852Z,29.77
2018-05-29T05:14:41.329Z,29.00
2018-05-29T05:17:08.786Z,27.13
2018-05-29T05:19:36.219Z,35.33
2018-05-29T05:22:03.710Z,24.43
2018-05-29T05:24:32.087Z,106.80
2018-05-29T05:26:59.717Z,129.73
2018-05-29T05:29:27.170Z,47.13
2018-05-29T05:31:54.629Z,107.47
2018-05-29T05:34:22.093Z,50.50
2018-05-29T05:36:49.547Z,68.70
2018-05-29T05:39:17.019Z,50.63
2018-05-29T05:41:44.469Z,78.13
2018-05-29T05:44:11.933Z,57.20
2018-05-29T05:46:39.510Z,68.53
2018-05-29T05:49:07.153Z,68.00
2018-05-29T05:51:34.604Z,60.27
2018-05-29T05:54:02.066Z,62.80
2018-05-29T05:56:29.523Z,44.17
2018-05-29T05:58:57.121Z,27.77
2018-05-29T06:01:24.665Z,37.77
2018-05-29T06:03:52.203Z,44.33
2018-05-29T06:06:19.791Z,29.50
2018-05-29T06:08:47.232Z,43.20
2018-05-29T06:11:14.710Z,32.10
2018-05-29T06:13:42.176Z,29.47
2018-05-29T06:16:09.716Z,21.20
2018-05-29T06:18:37.163Z,23.57
2018-05-29T06:21:04.627Z,23.60
2018-05-29T06:23:32.102Z,17.77
2018-05-29T06:25:59.569Z,24.10
2018-05-29T06:28:27.008Z,21.57
2018-05-29T06:30:54.494Z,19.80
2018-05-29T06:33:21.969Z,21.17
2018-05-29T06:35:49.456Z,29.70
2018-05-29T06:38:16.990Z,23.00
2018-05-29T06:40:44.459Z,22.17
2018-05-29T06:43:11.926Z,20.10
2018-05-29T06:45:39.438Z,19.40
2018-05-29T06:48:06.942Z,18.90
2018-05-29T06:50:34.440Z,15.07
2018-05-29T06:53:01.910Z,15.07
2018-05-29T06:55:29.439Z,26.87
2018-05-29T06:57:56.906Z,28.03
2018-05-29T07:00:24.374Z,18.37
2018-05-29T07:02:51.865Z,28.20
2018-05-29T07:05:19.409Z,24.30
2018-05-29T07:07:46.903Z,20.40
2018-05-29T07:10:14.367Z,19.43
2018-05-29T07:12:41.839Z,19.53
2018-05-29T07:15:09.349Z,17.33
2018-05-29T07:17:36.843Z,21.57
2018-05-29T07:20:04.294Z,22.70
2018-05-29T07:22:31.769Z,17.80
2018-05-29T07:24:59.353Z,18.63
2018-05-29T07:27:26.837Z,23.43
2018-05-29T07:29:54.283Z,24.27
2018-05-29T07:32:21.863Z,18.17
2018-05-29T07:34:49.343Z,19.57
2018-05-29T07:37:16.788Z,21.30
2018-05-29T07:39:44.364Z,30.77
2018-05-29T07:42:11.816Z,19.97
2018-05-29T07:44:39.316Z,14.90
2018-05-29T07:47:06.790Z,19.87
2018-05-29T07:49:34.311Z,17.13
2018-05-29T07:52:01.909Z,20.10
2018-05-29T07:54:29.909Z,13.67
2018-05-29T07:56:57.476Z,15.03
2018-05-29T07:59:25.081Z,12.47
2018-05-29T08:01:52.608Z,16.00
2018-05-29T08:04:20.075Z,18.30
2018-05-29T08:06:47.569Z,18.93
2018-05-29T08:09:15.042Z,13.03
2018-05-29T08:11:42.509Z,17.47
2018-05-29T08:14:09.965Z,15.53
2018-05-29T08:16:37.471Z,16.90
2018-05-29T08:19:04.960Z,14.43
2018-05-29T08:21:32.425Z,17.17
2018-05-29T08:23:59.886Z,21.03
2018-05-29T08:26:27.505Z,27.17
2018-05-29T08:28:55.037Z,14.80
2018-05-29T08:31:22.556Z,17.77
2018-05-29T08:33:50.013Z,18.73
2018-05-29T08:36:17.510Z,14.40
2018-05-29T08:38:44.989Z,14.67
2018-05-29T08:41:12.557Z,15.60
2018-05-29T08:43:40.030Z,14.33
2018-05-29T08:46:07.522Z,12.87
2018-05-29T08:48:35.028Z,14.67
2018-05-29T08:51:02.523Z,15.77
2018-05-29T08:53:29.980Z,15.23
2018-05-29T08:55:57.523Z,15.57
2018-05-29T08:58:25.049Z,15.10
2018-05-29T09:00:52.617Z,13.67
2018-05-29T09:03:20.062Z,15.33
2018-05-29T09:05:47.619Z,14.53
2018-05-29T09:08:15.176Z,11.77
2018-05-29T09:10:43.697Z,15.43
2018-05-29T09:13:11.323Z,14.33
2018-05-29T09:15:38.808Z,9.03
2018-05-29T09:18:06.284Z,10.33
2018-05-29T09:20:33.734Z,14.10
2018-05-29T09:23:01.262Z,11.73
2018-05-29T09:25:28.714Z,14.20
2018-05-29T09:27:56.153Z,15.20
2018-05-29T09:30:23.676Z,21.83
2018-05-29T09:32:51.289Z,13.17
2018-05-29T09:35:18.816Z,13.20
2018-05-29T09:37:46.343Z,12.67
2018-05-29T09:40:13.881Z,13.30
2018-05-29T09:42:41.413Z,15.90
2018-05-29T09:45:08.886Z,12.93
2018-05-29T09:47:36.379Z,8.10
2018-05-29T09:50:03.884Z,10.97
2018-05-29T09:52:31.355Z,13.67
2018-05-29T09:54:58.893Z,15.73
2018-05-29T09:57:26.681Z,15.97
2018-05-29T09:59:54.140Z,16.60
2018-05-29T10:02:21.613Z,12.20
2018-05-29T10:04:49.080Z,13.80
2018-05-29T10:07:17.797Z,12.87
2018-05-29T10:09:47.240Z,12.27
2018-05-29T10:12:14.914Z,16.00
2018-05-29T10:14:42.455Z,13.97
2018-05-29T10:17:10.016Z,11.47
2018-05-29T10:19:37.713Z,15.40
2018-05-29T10:22:05.174Z,12.30
2018-05-29T10:24:32.681Z,11.10
2018-05-29T10:27:00.145Z,14.20
2018-05-29T10:29:27.609Z,11.13
2018-05-29T10:31:55.173Z,13.83
2018-05-29T10:34:23.201Z,15.00
2018-05-29T10:36:50.786Z,13.47
2018-05-29T10:39:18.275Z,18.97
2018-05-29T10:41:45.831Z,10.30
2018-05-29T10:44:13.385Z,16.63
2018-05-29T10:46:41.088Z,12.80
2018-05-29T10:49:08.564Z,15.20
2018-05-29T10:51:36.010Z,16.60
2018-05-29T10:54:03.473Z,16.73
2018-05-29T10:56:30.930Z,19.23
2018-05-29T10:58:58.403Z,19.53
2018-05-29T11:01:25.874Z,17.93
2018-05-29T11:03:53.354Z,17.70
2018-05-29T11:06:20.922Z,14.40
2018-05-29T11:08:48.449Z,10.87
2018-05-29T11:11:15.977Z,12.83
2018-05-29T11:13:43.472Z,16.43
2018-05-29T11:16:11.418Z,14.73
2018-05-29T11:18:38.996Z,9.57
2018-05-29T11:21:06.583Z,10.73
2018-05-29T11:23:34.021Z,11.73
2018-05-29T11:26:01.484Z,8.30
2018-05-29T11:28:28.946Z,12.60
2018-05-29T11:30:56.517Z,10.37
2018-05-29T11:33:23.967Z,10.57
2018-05-29T11:35:51.434Z,13.47
2018-05-29T11:38:18.913Z,10.50
2018-05-29T11:40:46.352Z,12.10
2018-05-29T11:43:13.818Z,18.70
2018-05-29T11:45:41.335Z,19.83
2018-05-29T11:48:08.872Z,22.37
2018-05-29T11:50:36.338Z,13.60
2018-05-29T11:53:03.814Z,8.83
2018-05-29T11:55:31.356Z,11.80
2018-05-29T11:57:58.864Z,15.83
2018-05-29T12:00:26.372Z,12.60
2018-05-29T12:02:54.977Z,8.43
2018-05-29T12:05:22.458Z,12.23
2018-05-29T12:07:49.969Z,9.93
2018-05-29T12:10:17.434Z,10.57
2018-05-29T12:12:44.906Z,7.90
2018-05-29T12:15:12.451Z,9.00
2018-05-29T12:17:39.901Z,12.67
2018-05-29T12:20:07.461Z,8.23
2018-05-29T12:22:34.915Z,8.50
2018-05-29T12:25:02.402Z,9.37
2018-05-29T12:27:29.909Z,10.17
2018-05-29T12:29:57.361Z,11.73
2018-05-29T12:32:25.022Z,10.90
2018-05-29T12:34:52.540Z,11.37
2018-05-29T12:37:20.056Z,8.23
2018-05-29T12:39:47.509Z,9.50
2018-05-29T12:42:15.010Z,14.63
2018-05-29T12:44:42.473Z,12.80
2018-05-29T12:47:10.000Z,22.27
2018-05-29T12:49:37.467Z,8.57
2018-05-29T12:52:04.947Z,9.33
2018-05-29T12:54:32.426Z,12.80
2018-05-29T12:56:59.933Z,8.50
2018-05-29T12:59:27.431Z,7.57
2018-05-29T13:01:54.967Z,8.40
2018-05-29T13:04:22.556Z,10.60
2018-05-29T13:06:50.054Z,10.53
2018-05-29T13:09:17.562Z,17.03
2018-05-29T13:11:45.041Z,7.07
2018-05-29T13:14:12.770Z,13.40
2018-05-29T13:16:40.266Z,12.43
2018-05-29T13:19:07.733Z,11.00
2018-05-29T13:21:35.190Z,10.33
2018-05-29T13:24:02.662Z,10.00
2018-05-29T13:26:30.158Z,11.03
2018-05-29T13:28:57.630Z,9.57
2018-05-29T13:31:25.080Z,11.00
2018-05-29T13:33:52.551Z,10.73
2018-05-29T13:36:20.097Z,5.53
2018-05-29T13:38:47.588Z,6.90
2018-05-29T13:41:15.104Z,13.47
2018-05-29T13:43:42.536Z,9.77
2018-05-29T13:46:10.017Z,23.67
2018-05-29T13:48:37.495Z,12.10
2018-05-29T13:51:04.969Z,8.83
2018-05-29T13:53:32.475Z,15.03
2018-05-29T13:56:04.745Z,10.70
2018-05-29T13:58:32.235Z,9.90
2018-05-29T14:00:59.673Z,13.27
2018-05-29T14:03:27.215Z,14.17
2018-05-29T14:05:54.665Z,7.03
2018-05-29T14:08:22.197Z,10.80
2018-05-29T14:10:49.672Z,8.23
2018-05-29T14:13:17.122Z,10.10
2018-05-29T14:15:44.573Z,10.93
2018-05-29T14:18:12.293Z,16.93
2018-05-29T14:20:39.804Z,11.40
2018-05-29T14:23:07.259Z,5.93
2018-05-29T14:25:34.870Z,7.83
2018-05-29T14:28:02.331Z,13.23
2018-05-29T14:30:29.825Z,12.07
2018-05-29T14:32:57.296Z,9.50
2018-05-29T14:35:24.793Z,12.87
2018-05-29T14:37:52.239Z,15.40
2018-05-29T14:40:19.792Z,17.50
2018-05-29T14:42:47.240Z,14.10
2018-05-29T14:45:14.712Z,9.80
2018-05-29T14:47:42.182Z,11.60
2018-05-29T14:50:09.618Z,14.13
2018-05-29T14:52:37.064Z,21.50
2018-05-29T14:55:04.571Z,11.63
2018-05-29T14:57:32.038Z,14.40
2018-05-29T14:59:59.813Z,9.87
2018-05-29T15:02:27.507Z,8.13
2018-05-29T15:04:55.000Z,6.50
2018-05-29T15:07:22.539Z,12.80
2018-05-29T15:09:49.987Z,4.60
2018-05-29T15:12:17.456Z,10.47
2018-05-29T15:14:44.911Z,9.73
2018-05-29T15:17:12.388Z,6.63
2018-05-29T15:19:39.930Z,7.27
2018-05-29T15:22:07.560Z,6.13
2018-05-29T15:24:35.059Z,8.23
2018-05-29T15:27:02.828Z,7.90
2018-05-29T15:29:30.269Z,13.43
2018-05-29T15:31:57.723Z,16.17
2018-05-29T15:34:25.213Z,5.90
2018-05-29T15:36:52.746Z,9.37
2018-05-29T15:39:20.172Z,5.93
2018-05-29T15:41:47.693Z,6.83
2018-05-29T15:44:15.182Z,7.80
2018-05-29T15:46:42.672Z,6.60
2018-05-29T15:49:10.132Z,6.97
2018-05-29T15:51:37.580Z,11.40
2018-05-29T15:54:05.039Z,12.93
2018-05-29T15:56:32.593Z,8.10
2018-05-29T15:59:00.039Z,3.80
2018-05-29T16:01:27.483Z,11.50
2018-05-29T16:03:54.994Z,10.93
2018-05-29T16:06:22.456Z,4.87
2018-05-29T16:08:50.105Z,4.73
2018-05-29T16:11:17.692Z,6.13
2018-05-29T16:13:45.106Z,4.80
2018-05-29T16:16:12.546Z,4.87
2018-05-29T16:18:40.002Z,8.37
2018-05-29T16:21:07.440Z,4.43
2018-05-29T16:23:34.959Z,4.10
2018-05-29T16:26:02.526Z,3.63
2018-05-29T16:28:29.994Z,3.07
2018-05-29T16:30:57.474Z,6.63
2018-05-29T16:33:24.968Z,3.10
2018-05-29T16:35:52.406Z,3.53
2018-05-29T16:38:19.871Z,5.37
2018-05-29T16:40:47.401Z,3.20
2018-05-29T16:43:14.879Z,4.77
2018-05-29T16:45:42.351Z,9.40
2018-05-29T16:48:09.794Z,5.47
2018-05-29T16:50:37.276Z,6.47
2018-05-29T16:53:04.746Z,5.27
2018-05-29T16:55:32.209Z,4.97
2018-05-29T16:57:59.755Z,5.70
2018-05-29T17:00:27.226Z,22.37
2018-05-29T17:02:54.701Z,33.43
2018-05-29T17:05:22.148Z,21.90
2018-05-29T17:07:49.623Z,32.17
2018-05-29T17:10:17.136Z,61.53
2018-05-29T17:12:44.618Z,85.77
2018-05-29T17:15:12.159Z,64.13
2018-05-29T17:17:39.600Z,102.87
2018-05-29T17:20:07.087Z,12.13
2018-05-29T17:22:34.628Z,78.07
2018-05-29T17:25:02.110Z,18.73
2018-05-29T17:27:29.556Z,67.13
2018-05-29T17:29:57.099Z,38.00
2018-05-29T17:32:24.559Z,40.63
2018-05-29T17:34:52.037Z,34.00
2018-05-29T17:37:19.490Z,50.77
2018-05-29T17:39:46.971Z,35.10
2018-05-29T17:42:14.483Z,11.20
2018-05-29T17:44:42.111Z,24.77
2018-05-29T17:47:09.608Z,17.27
2018-05-29T17:49:37.057Z,8.83
2018-05-29T17:52:04.699Z,19.63
2018-05-29T17:54:32.484Z,6.63
2018-05-29T17:57:00.114Z,9.03
2018-05-29T17:59:27.638Z,14.00
2018-05-29T18:01:55.610Z,16.70
2018-05-29T18:04:23.090Z,15.40
2018-05-29T18:06:50.543Z,39.43
2018-05-29T18:09:17.999Z,6.77
2018-05-29T18:11:45.452Z,25.23
2018-05-29T18:14:12.928Z,14.47
2018-05-29T18:16:40.429Z,14.63
2018-05-29T18:19:07.975Z,36.43
2018-05-29T18:21:35.431Z,16.87
2018-05-29T18:24:03.020Z,21.43
2018-05-29T18:26:31.600Z,9.70
2018-05-29T18:28:59.121Z,10.63
2018-05-29T18:31:26.588Z,12.47
2018-05-29T18:33:54.044Z,8.97
2018-05-29T18:36:21.616Z,15.83
2018-05-29T18:38:49.094Z,11.27
2018-05-29T18:41:16.716Z,8.07
2018-05-29T18:43:44.180Z,9.97
2018-05-29T18:46:11.663Z,8.50
2018-05-29T18:48:39.137Z,14.53
2018-05-29T18:51:06.843Z,9.10
2018-05-29T18:53:34.295Z,9.97
2018-05-29T18:56:02.161Z,10.20
2018-05-29T18:58:29.669Z,5.63
2018-05-29T19:00:57.215Z,6.80
2018-05-29T19:03:24.738Z,5.73
2018-05-29T19:05:52.174Z,8.73
2018-05-29T19:08:19.796Z,12.13
2018-05-29T19:10:47.279Z,11.43
2018-05-29T19:13:14.824Z,14.63
2018-05-29T19:15:42.304Z,7.03
2018-05-29T19:18:09.753Z,8.57
2018-05-29T19:20:37.262Z,14.83
2018-05-29T19:23:05.038Z,12.30
2018-05-29T19:25:32.519Z,6.17
2018-05-29T19:27:59.975Z,11.37
2018-05-29T19:30:27.446Z,12.70
2018-05-29T19:32:54.904Z,8.00
2018-05-29T19:35:22.458Z,15.23
2018-05-29T19:37:49.913Z,9.30
2018-05-29T19:40:17.391Z,10.60
2018-05-29T19:42:44.850Z,9.60
2018-05-29T19:45:12.305Z,10.80
2018-05-29T19:47:39.787Z,8.07
2018-05-29T19:50:07.270Z,9.87
2018-05-29T19:52:34.719Z,13.80
2018-05-29T19:55:02.192Z,22.13
2018-05-29T19:57:29.798Z,20.97
2018-05-29T19:59:57.353Z,16.93
2018-05-29T20:02:24.821Z,13.23
2018-05-29T20:04:52.360Z,10.17
2018-05-29T20:07:19.880Z,14.20
2018-05-29T20:09:47.416Z,15.37
2018-05-29T20:12:14.912Z,12.17
2018-05-29T20:14:42.358Z,9.47
2018-05-29T20:17:09.820Z,14.63
2018-05-29T20:19:38.230Z,14.90
2018-05-29T20:22:05.755Z,13.07
2018-05-29T20:24:33.905Z,16.17
2018-05-29T20:27:01.569Z,13.90
2018-05-29T20:29:29.024Z,11.90
2018-05-29T20:31:56.474Z,14.60
2018-05-29T20:34:23.964Z,9.90
2018-05-29T20:36:51.521Z,19.40
2018-05-29T20:39:18.937Z,14.27
2018-05-29T20:41:46.420Z,16.70
2018-05-29T20:44:14.067Z,36.87
2018-05-29T20:46:41.593Z,16.67
2018-05-29T20:49:09.152Z,13.30
2018-05-29T20:51:36.674Z,18.10
2018-05-29T20:54:04.099Z,11.43
2018-05-29T20:56:31.553Z,16.73
2018-05-29T20:58:59.008Z,16.53
2018-05-29T21:01:26.496Z,11.83
2018-05-29T21:03:53.958Z,17.10
2018-05-29T21:06:21.435Z,30.13
2018-05-29T21:08:48.965Z,9.80
2018-05-29T21:11:16.469Z,11.70
2018-05-29T21:13:43.927Z,12.97
2018-05-29T21:16:11.462Z,14.33
2018-05-29T21:18:38.920Z,18.57
2018-05-29T21:21:06.449Z,10.63
2018-05-29T21:23:33.914Z,15.13
2018-05-29T21:26:01.354Z,15.00
2018-05-29T21:28:28.820Z,13.77
2018-05-29T21:30:56.285Z,17.57
2018-05-29T21:33:23.744Z,14.20
2018-05-29T21:35:51.192Z,14.00
2018-05-29T21:38:18.637Z,18.80
2018-05-29T21:40:46.146Z,11.53
2018-05-29T21:43:13.698Z,13.30
2018-05-29T21:45:41.206Z,13.00
2018-05-29T21:48:08.656Z,20.63
2018-05-29T21:50:36.175Z,13.43
2018-05-29T21:53:03.652Z,15.23
2018-05-29T21:55:31.213Z,9.23
2018-05-29T21:57:58.740Z,10.93
2018-05-29T22:00:26.301Z,12.87
2018-05-29T22:02:53.747Z,8.47
2018-05-29T22:05:21.207Z,9.50
2018-05-29T22:07:48.671Z,12.77
2018-05-29T22:10:16.141Z,10.13
2018-05-29T22:12:43.691Z,10.33
2018-05-29T22:15:11.221Z,13.43
2018-05-29T22:17:38.693Z,15.97
2018-05-29T22:20:06.147Z,14.40
2018-05-29T22:22:33.619Z,16.33
2018-05-29T22:25:01.327Z,17.30
2018-05-29T22:27:28.786Z,15.20
2018-05-29T22:29:56.264Z,10.30
2018-05-29T22:32:23.736Z,15.90
2018-05-29T22:34:51.196Z,13.93
2018-05-29T22:37:18.661Z,16.77
2018-05-29T22:39:46.103Z,14.30
2018-05-29T22:42:13.560Z,14.60
2018-05-29T22:44:41.014Z,12.33
2018-05-29T22:47:08.501Z,11.63
2018-05-29T22:49:35.996Z,16.10
2018-05-29T22:52:03.494Z,18.77
2018-05-29T22:54:30.985Z,17.30
2018-05-29T22:57:00.690Z,14.83
2018-05-29T22:59:28.443Z,20.30
2018-05-29T23:01:56.245Z,26.70
2018-05-29T23:04:23.763Z,18.90
2018-05-29T23:06:51.244Z,18.80
2018-05-29T23:09:18.705Z,14.40
2018-05-29T23:11:46.157Z,19.00
2018-05-29T23:14:13.619Z,18.47
2018-05-29T23:16:41.137Z,14.90
2018-05-29T23:19:08.578Z,11.57
2018-05-29T23:21:36.046Z,12.20
2018-05-29T23:24:03.492Z,10.17
2018-05-29T23:26:30.967Z,13.83
2018-05-29T23:28:58.432Z,17.20
2018-05-29T23:31:25.901Z,18.07
2018-05-29T23:33:53.355Z,16.67
2018-05-29T23:36:20.807Z,17.77
2018-05-29T23:38:48.255Z,19.20
2018-05-29T23:41:15.710Z,19.30
2018-05-29T23:43:43.258Z,25.20
2018-05-29T23:46:10.715Z,17.40
2018-05-29T23:48:38.164Z,21.47
2018-05-29T23:51:05.639Z,15.83
2018-05-29T23:53:33.088Z,18.63
2018-05-29T23:56:00.539Z,19.73
2018-05-29T23:58:28.020Z,19.10
